Airfield :
LOGIN :

Register | Disclaimer

   EN    FR    IT 

 










Legend :    VFR   Marginal VFR   IFR   Intensive IFR   Very Intensive IFR
Visi :
Ceiling :
>= 8 km
>= 3000ft
5 to 8 km
1000 to 3000 ft
1500m to 5 km
500 to 1000 ft
800 to 1500m
200 to 500 ft
< 800m
< 200 ft
Symbols :   Thunderstorms  Fog  Heavy snow  Heavy precipitations  Wind > 20 kt
SIGMETs :     Misc.  Thunderstorms  Icing  Turbulence  Mountain Waves  Volcanic Ashes






- Airport Elevation : 93 ft
- IATA code : XRY


LEJR - Jerez

CURRENT METAR :
  • 021000Z AUTO VRB02KT 9999 BKN049 13/09 Q1012

EXPIRED METARs :
  • 020930Z AUTO 12003KT 050V180 9999 FEW011 12/10 Q1012
  • 020900Z AUTO 07006KT 030V100 9999 -RA SCT013 BKN023 10/09 Q1012 RERA
  • 020830Z AUTO 02003KT 340V060 9999 -RA SCT025 BKN033 BKN044 10/10 Q1012
  • 020800Z AUTO 09003KT 9999 -RA BKN035 BKN050 10/10 Q1011
  • 020730Z AUTO 06004KT 010V090 8000 RA FEW034 BKN041 OVC050 10/10 Q1011

TAF TAF LEJR
Valid from the 02 at 06:00 until the 03 at 06:00 UTC


020500Z 0206/0306 28009KT 9999 SCT025 TX17/0215Z TN06/0306Z
PROB40
TEMPO 0206/0214 SCT025CB
PROB40
TEMPO 0300/0306 4000 BR



MET'MAP, your aeronautical weather chart ! - Copyright ORBIFLY December 2007 - Disclaimer

ORBIFLY MET'MAP TEAM :

Programming & Development : Alexandra Zaïnal
Concept & original design : Baudouin d'Aumeries
Assistance for programming : Marc-Olivier Méhu
Technical & hardware support : Manuel Goepfert

Contact : metmap@orbifly.com




SOURCES & CREDITS :

   NOAA